Tiempo atmosférico en la estación meteorológica de Burgo de Osma, Soria (932 m.)



Fecha
DESCASC
Temp. máxima en grados centígrados (hora)
DESCASC
Temp. mínima en grados centígrados (hora)
DESCASC
Temp. media en grados centígrados
DESCASC
Racha de viento máxima en m/sg (hora)
DESCASC
Velocidad máxima media en intervalos de 10 minutos(hora)
DESCASC
Precipitaciones diarias en mm
DESCASC
Precipitaciones de 00:00 a 06:00 en mm
DESCASC
Precipitaciones de 06:00 a 12:00 en mm
DESCASC
Precipitaciones de 12:00 a 18:00 en mm
DESCASC
Precipitaciones de 18:00 a 24:00 en mm
DESCASC
24-01-2021 8.7 (14:10) 5 (09:10) 6.8 21.67 (04:10) 14.44 (05:40) 0.4 0.4 0 0 0
23-01-2021 10 (22:10) 2.7 (04:50) 6.4 21.94 (22:00) 14.44 (22:20) 4.8 0 0 2.2 2.6
22-01-2021 9.2 (05:00) 3.3 (22:00) 6.2 30.83 (06:00) 17.5 (05:20) 8.4 5.8 2.6 0 0
21-01-2021 10.2 (17:20) 5.2 (00:00) 7.7 16.11 (17:50) 11.11 (14:30) 2.6 0.4 0.4 0 1.8
20-01-2021 8 (13:40) -2.3 (-00:0) 2.9 10.56 (14:10) 7.22 (14:10) 2.6 0 0 0.2 2.4
19-01-2021 14.7 (16:00) -6.5 (-00:0) 4.1 3.33 (12:40) 2.5 (12:40) 0 0 0 0 0
18-01-2021 8.8 (15:50) -6.3 (-00:0) 1.3 7.22 (15:20) 4.72 (16:50) 0 0 0 0 0
17-01-2021 8.6 (16:30) -9.1 (-00:0) -0.3 8.33 (15:30) 5.56 (15:30) 0 0 0 0 0
16-01-2021 4.3 (16:20) -4.9 (-00:0) -0.3 6.67 (16:00) 4.72 (01:20) 0 0 0 0 0
15-01-2021 4.4 (16:30) -3.8 (-00:0) 0.3 10.83 (02:10) 8.61 (16:00) 0 0 0 0 0
14-01-2021 4.7 (16:20) -8.6 (02:00) -2 8.61 (23:40) 6.94 (23:30) 0 0 0 0 0
13-01-2021 4.4 (16:40) -9.6 (-00:0) -2.6 9.44 (16:00) 6.67 (16:00) 0.2 0 0.2 0 0
12-01-2021 0.8 (16:20) -14.8 (-00:0) -7 7.78 (14:30) 5.56 (14:30) 0 0 0 0 0
11-01-2021 2.6 (16:00) -17.8 (-00:0) -7.6 9.17 (13:40) 7.5 (13:40) 0 0 0 0 0
10-01-2021 9 (13:00) -7.4 (23:30) 0.8 4.44 (16:10) 3.61 (15:50) 1.2 0 0.6 0.6 0
09-01-2021 -0.7 (12:50) -3 (-00:0) -1.8 11.11 (15:30) 7.78 (15:40) 0.8 0 0 0.8 0
08-01-2021 -0.7 (14:50) -11.5 (-00:0) -6.1 7.78 (22:50) 5.56 (22:50) 0 0 0 0 0
07-01-2021 2.6 (15:00) -8.4 (-00:0) -2.9 5.28 (15:20) 3.89 (14:50) 0 0 0 0 0
06-01-2021 5.3 (14:50) -9.8 (-00:0) -2.3 3.33 (16:00) 1.67 (16:10) 0 0 0 0 0
05-01-2021 3.2 (15:40) -6.2 (-00:0) -1.5 5.83 (10:20) 4.44 (12:20) 0.8 0 0 0.8 0
04-01-2021 1.4 (17:00) -3.5 (-00:0) -1.1 10.83 (10:30) 7.78 (10:20) 0 0 0 0 0
03-01-2021 1.8 (16:20) -4 (-00:0) -1.1 11.67 (19:00) 8.89 (19:00) 0 0 0 0 0
02-01-2021 1.1 (13:50) -2.9 (-00:0) -0.9 -- (--) -- (--) -- 0 0 -- 0
01-01-2021 2.7 (16:10) -1.7 (-00:0) 0.5 13.89 (16:30) 9.72 (16:10) 0.2 0 0 0.2 0
31-12-2020 3.9 (18:10) 0.5 (00:00) 2.2 13.89 (11:10) 9.72 (11:50) 5.4 0 0 3.4 2
30-12-2020 2.9 (17:10) -2.5 (-00:0) 0.2 10.83 (13:30) 8.33 (13:40) 0 0 0 0 0
29-12-2020 4.8 (15:20) -1.2 (-00:0) 1.8 14.44 (05:20) 10.28 (15:20) 1.4 0 1.4 0 0
28-12-2020 5.5 (03:20) 0.6 (00:00) 3.1 28.89 (03:30) 16.11 (01:10) 2.8 2.8 0 0 0
27-12-2020 7.4 (16:00) -3.1 (-00:0) 2.2 21.94 (23:30) 15.83 (23:30) 0 0 0 0 0
26-12-2020 5.9 (13:50) -2.7 (-00:0) 1.6 11.11 (14:40) 8.61 (16:00) 0 0 0 0 0

Gráficas

Temp. máximas Temp. mínimas Temp. medias Precipitaciones Rachas de viento máximas Velocidades máximas media en intervalos de 10 minutos

Datos horarios

Fecha y hora oficial Temperatura (ºC) Velocidad del viento (km/h) Dirección del viento Racha (km/h) Dirección de racha Precipitación (mm) Presión (hPa) Tendencia (hPa) Humedad (%)
2021-01-24 23:00:00 6.1 22 Oeste 37 Oeste 0 -- -- 83
2021-01-24 22:00:00 6 22 Oeste 36 Oeste 0 -- -- 82
2021-01-24 21:00:00 6.1 23 Oeste 40 Oeste 0 -- -- 78
2021-01-24 20:00:00 6.4 26 Oeste 40 Oeste 0 -- -- 77
2021-01-24 19:00:00 6.3 26 Oeste 46 Oeste 0 -- -- 76
2021-01-24 18:00:00 6.8 35 Oeste 49 Oeste 0 -- -- 71
2021-01-24 17:00:00 7 30 Oeste 53 Oeste 0 -- -- 71
2021-01-24 16:00:00 7.3 37 Oeste 60 Oeste 0 -- -- 68
2021-01-24 15:00:00 7.8 39 Oeste 62 Oeste 0 -- -- 65
2021-01-24 14:00:00 8.3 32 Oeste 58 Oeste 0 -- -- 69
2021-01-24 13:00:00 7.9 36 Oeste 58 Oeste 0 -- -- 68
2021-01-24 12:00:00 7.1 40 Oeste 62 Oeste 0 -- -- 74
2021-01-24 11:00:00 6.8 39 Oeste 59 Oeste 0 -- -- 77
2021-01-24 10:00:00 5.8 34 Oeste 45 Oeste 0 -- -- 83
2021-01-24 09:00:00 5.2 31 Oeste 49 Oeste 0 -- -- 86
2021-01-24 08:00:00 5.5 33 Oeste 52 Oeste 0 -- -- 87
2021-01-24 07:00:00 5.6 38 Oeste 66 Oeste 0 -- -- 87
2021-01-24 06:00:00 5.7 44 Oeste 75 Oeste 0 -- -- 88
2021-01-24 05:00:00 5.9 46 Oeste 78 Oeste 0.4 -- -- 86
2021-01-24 04:00:00 6.8 46 Oeste 68 Oeste 0 -- -- 79
2021-01-24 03:00:00 6.9 40 Oeste 69 Oeste 0 -- -- 79
2021-01-24 02:00:00 6.9 41 Oeste 63 Oeste 0 -- -- 79
2021-01-24 01:00:00 7.1 37 Oeste 69 Oeste 0 -- -- 80
2021-01-24 00:00:00 7.3 39 Oeste 68 Oeste 0 -- -- 77
2021-01-23 23:00:00 8.4 44 Oeste 74 Noroeste 1.2 -- -- 77
2021-01-23 22:00:00 9.9 50 Oeste 79 Oeste 0.2 -- -- 88
2021-01-23 21:00:00 9 32 Oeste 49 Oeste 0.8 -- -- 93
2021-01-23 20:00:00 8.4 37 Sudoeste 64 Sudoeste 0.2 -- -- 93
2021-01-23 19:00:00 8.4 31 Oeste 49 Oeste 0.2 -- -- 90
2021-01-23 18:00:00 7.3 30 Oeste 45 Oeste 0.2 -- -- 93
2021-01-23 17:00:00 6.9 25 Oeste 40 Oeste 0 -- -- 90
2021-01-23 16:00:00 5.7 23 Oeste 41 Oeste 0.2 -- -- 91
2021-01-23 15:00:00 4.9 24 Oeste 54 Oeste 0.4 -- -- 88
2021-01-23 14:00:00 5.1 30 Oeste 47 Oeste 0.2 -- -- 83
2021-01-23 13:00:00 4.3 24 Oeste 51 Oeste 1.2 -- -- 89
2021-01-23 12:00:00 4.6 36 Oeste 53 Oeste 0 -- -- 85
2021-01-23 11:00:00 4.5 33 Oeste 57 Oeste 0 -- -- 85
2021-01-23 10:00:00 4 32 Oeste 49 Oeste 0 -- -- 85
2021-01-23 09:00:00 3.4 33 Oeste 50 Oeste 0 -- -- 87
2021-01-23 08:00:00 2.7 33 Oeste 54 Oeste 0 -- -- 89
2021-01-23 07:00:00 3.2 33 Oeste 49 Oeste 0 -- -- 86
2021-01-23 06:00:00 2.9 32 Oeste 49 Oeste 0 -- -- 87
2021-01-23 05:00:00 2.7 34 Oeste 50 Oeste 0 -- -- 89
2021-01-23 04:00:00 3.1 37 Oeste 53 Oeste 0 -- -- 86
2021-01-23 03:00:00 3.2 33 Oeste 46 Oeste 0 -- -- 87
2021-01-23 02:00:00 3.2 27 Oeste 44 Oeste 0 -- -- 86
2021-01-23 01:00:00 3.2 30 Oeste 50 Oeste 0 -- -- 83
2021-01-23 00:00:00 3.6 34 Oeste 46 Oeste 0 -- -- 81
2021-01-22 23:00:00 3.6 33 Oeste 48 Oeste 0 -- -- 84
2021-01-22 22:00:00 3.3 29 Oeste 42 Oeste 0 -- -- 85
2021-01-22 21:00:00 4.1 27 Oeste 44 Oeste 0 -- -- 83
2021-01-22 20:00:00 4.2 31 Oeste 49 Oeste 0 -- -- 80
2021-01-22 19:00:00 4.7 28 Oeste 45 Oeste 0 -- -- 83
2021-01-22 18:00:00 4.6 30 Oeste 49 Oeste 0 -- -- 83
2021-01-22 17:00:00 6.5 37 Oeste 51 Oeste 0 -- -- 73
2021-01-22 16:00:00 5.3 38 Oeste 58 Oeste 0 -- -- 76
2021-01-22 15:00:00 7 38 Oeste 55 Oeste 0 -- -- 69
2021-01-22 14:00:00 6 38 Oeste 54 Oeste 0 -- -- 73
2021-01-22 13:00:00 5.7 30 Oeste 66 Oeste 0 -- -- 80
2021-01-22 12:00:00 5.1 39 Oeste 66 Oeste 0 -- -- 83
2021-01-22 11:00:00 3.9 42 Oeste 60 Oeste 2 -- -- 93
2021-01-22 10:00:00 3.6 37 Oeste 54 Oeste 0.4 -- -- 90
2021-01-22 09:00:00 3.6 39 Oeste 61 Oeste 0.2 -- -- 88
2021-01-22 08:00:00 4.3 35 Oeste 62 Oeste 0 -- -- 84
2021-01-22 07:00:00 4.8 46 Oeste 87 Oeste 0 -- -- 79
2021-01-22 06:00:00 4.8 63 Oeste 111 Oeste 5.6 -- -- 82
2021-01-22 05:00:00 9.2 38 Sudoeste 55 Oeste 0 -- -- 77
2021-01-22 04:00:00 7.4 14 Sudoeste 21 Sudoeste 0.2 -- -- 87
2021-01-22 03:00:00 7.2 6 Sur 11 Sur 0 -- -- 92
2021-01-22 02:00:00 7.2 5 Sudoeste 19 Oeste 0 -- -- 93
2021-01-22 01:00:00 7.6 10 Oeste 22 Sudoeste 0 -- -- 93
2021-01-22 00:00:00 7.5 13 Sudoeste 33 Oeste 0 -- -- 94
2021-01-21 23:00:00 7.6 20 Oeste 33 Sudoeste 0.4 -- -- 94
2021-01-21 22:00:00 8 20 Oeste 40 Oeste 0.4 -- -- 91
2021-01-21 21:00:00 8.2 28 Oeste 47 Oeste 0.2 -- -- 90
2021-01-21 20:00:00 8.5 26 Oeste 38 Oeste 0.2 -- -- 89
2021-01-21 19:00:00 8.2 25 Oeste 44 Oeste 0.6 -- -- 90
2021-01-21 18:00:00 9.2 32 Oeste 58 Oeste 0 -- -- 82
2021-01-21 17:00:00 9.7 33 Sudoeste 48 Sudoeste 0 -- -- 80
2021-01-21 16:00:00 9 26 Sudoeste 45 Sudoeste 0 -- -- 85
2021-01-21 15:00:00 9.2 33 Oeste 55 Sudoeste 0 -- -- 77
2021-01-21 14:00:00 8.7 18 Oeste 38 Oeste 0 -- -- 75
2021-01-21 13:00:00 9 28 Oeste 46 Oeste 0 -- -- 75
2021-01-21 12:00:00 8.7 33 Oeste 46 Oeste 0 -- -- 79
2021-01-21 11:00:00 7.2 17 Oeste 27 Oeste 0 -- -- 88
2021-01-21 10:00:00 6 17 Oeste 33 Sudoeste 0 -- -- 93
2021-01-21 09:00:00 5.4 14 Sudoeste 26 Oeste 0.2 -- -- 94
2021-01-21 08:00:00 5.5 18 Oeste 31 Oeste 0 -- -- 94
2021-01-21 07:00:00 5.8 23 Oeste 37 Oeste 0.2 -- -- 92
2021-01-21 06:00:00 5.3 17 Oeste 26 Oeste 0 -- -- 95
2021-01-21 05:00:00 5.6 15 Sudoeste 32 Oeste 0 -- -- 92
2021-01-21 04:00:00 6.1 27 Oeste 36 Oeste 0.2 -- -- 92
2021-01-21 03:00:00 5.6 17 Oeste 31 Sudoeste 0 -- -- 93
2021-01-21 02:00:00 6 21 Oeste 35 Oeste 0 -- -- 89
2021-01-21 01:00:00 5.8 24 Oeste 37 Oeste 0.2 -- -- 90
2021-01-21 00:00:00 5.2 18 Oeste 29 Sudoeste 0.4 -- -- 93
2021-01-20 23:00:00 4.9 12 Oeste 18 Oeste 0 -- -- 94
2021-01-20 22:00:00 4.7 12 Oeste 22 Sudoeste 0.4 -- -- 92
2021-01-20 21:00:00 5 14 Sudoeste 22 Sudoeste 1.2 -- -- 93
2021-01-20 20:00:00 4.3 7 Sudoeste 16 Sudoeste 0.4 -- -- 88
2021-01-20 19:00:00 4.9 0 Calma 13 Sudoeste 0 -- -- 84
2021-01-20 18:00:00 4.8 10 Sudoeste 30 Sudoeste 0.2 -- -- 85
2021-01-20 17:00:00 6.1 15 Sur 32 Sur 0 -- -- 75
2021-01-20 16:00:00 6.9 17 Sur 37 Sur 0 -- -- 71
2021-01-20 15:00:00 7.2 22 Sur 38 Sur 0 -- -- 67
2021-01-20 14:00:00 7.8 22 Sur 35 Sur 0 -- -- 67
2021-01-20 13:00:00 6.9 14 Sur 37 Sur 0 -- -- 72
2021-01-20 12:00:00 5.8 21 Sur 32 Sur 0 -- -- 75
2021-01-20 11:00:00 4.9 19 Sur 32 Sur 0 -- -- 79
2021-01-20 10:00:00 4.1 17 Sur 31 Sur 0 -- -- 82
2021-01-20 09:00:00 4.1 14 Sur 27 Sur 0 -- -- 81
2021-01-20 08:00:00 4 10 Sudoeste 18 Sur 0 -- -- 76
2021-01-20 07:00:00 2.5 0 Calma 14 Sudeste 0 -- -- 78
2021-01-20 06:00:00 3.4 10 Sudeste 17 Sudeste 0 -- -- 74
2021-01-20 05:00:00 -0.2 3 Este 12 Sur 0 -- -- 87
2021-01-20 04:00:00 -1.8 4 Este 8 Este 0 -- -- 88
2021-01-20 03:00:00 -0.9 0 Calma 5 Sudeste 0 -- -- 89
2021-01-20 02:00:00 -0.7 2 Nordeste 9 Este 0 -- -- 89
2021-01-20 01:00:00 -0.9 6 Nordeste 12 Este 0 -- -- 88
2021-01-20 00:00:00 -0.8 4 Nordeste 12 Este 0 -- -- 89
2021-01-19 23:00:00 -0.3 6 Nordeste 11 Este 0 -- -- 90
2021-01-19 22:00:00 0.6 6 Nordeste 11 Nordeste 0 -- -- 88
2021-01-19 21:00:00 1.2 4 Nordeste 8 Este 0 -- -- 85
2021-01-19 20:00:00 2.1 5 Este 10 Este 0 -- -- 83
2021-01-19 19:00:00 3.7 5 Este 12 Este 0 -- -- 76
2021-01-19 18:00:00 6.1 2 Este 7 Este 0 -- -- 65
2021-01-19 17:00:00 9.6 4 Sudeste 7 Este 0 -- -- 47
2021-01-19 16:00:00 14.7 3 Este 9 Este 0 -- -- 36
2021-01-19 15:00:00 12 5 Este 10 Este 0 -- -- 44
2021-01-19 14:00:00 11.8 4 Este 11 Este 0 -- -- 47
2021-01-19 13:00:00 8.2 5 Este 12 Sudeste 0 -- -- 65
2021-01-19 12:00:00 5.9 4 Este 7 Este 0 -- -- 71
2021-01-19 11:00:00 2.4 3 Este 5 Este 0 -- -- 87
2021-01-19 10:00:00 -2.1 0 Calma 3 Este 0 -- -- 93
2021-01-19 09:00:00 -5.6 0 Calma 3 Nordeste 0 -- -- 95
2021-01-19 08:00:00 -6.5 0 Calma 2 Este 0 -- -- 96
2021-01-19 07:00:00 -6.1 2 Este 5 Este 0 -- -- 96
2021-01-19 06:00:00 -5.7 3 Este 5 Este 0 -- -- 95
2021-01-19 05:00:00 -5 0 Calma 3 Nordeste 0 -- -- 97
2021-01-19 04:00:00 -4.5 0 Calma 3 Este 0 -- -- 96
2021-01-19 03:00:00 -4.5 3 Este 5 Este 0 -- -- 96
2021-01-19 02:00:00 -4.5 3 Este 4 Este 0 -- -- 97
2021-01-19 01:00:00 -3.8 0 Calma 2 Nordeste 0 -- -- 97
2021-01-19 00:00:00 -2.9 2 Este 2 Este 0 -- -- 96
2021-01-18 23:00:00 -2.5 0 Calma 4 Sudeste 0 -- -- 96
2021-01-18 22:00:00 -1.9 0 Calma -- -- 0 -- -- 94
2021-01-18 21:00:00 0.6 0 Calma 5 Oeste 0 -- -- 92
2021-01-18 20:00:00 2.5 2 Oeste 7 Sudoeste 0 -- -- 85
2021-01-18 19:00:00 3.6 3 Sur 12 Noroeste 0 -- -- 87
2021-01-18 18:00:00 5.3 9 Noroeste 21 Oeste 0 -- -- 78
2021-01-18 17:00:00 8 15 Oeste 21 Oeste 0 -- -- 69
2021-01-18 16:00:00 8.8 12 Oeste 26 Oeste 0 -- -- 67
2021-01-18 15:00:00 8.5 16 Oeste 23 Oeste 0 -- -- 68
2021-01-18 14:00:00 8 14 Oeste 24 Oeste 0 -- -- 69
2021-01-18 13:00:00 6.3 0 Calma 4 Sudeste 0 -- -- 88
2021-01-18 12:00:00 0.8 3 Este 6 Este 0 -- -- 93
2021-01-18 11:00:00 -1.5 2 Sudeste 4 Sudeste 0 -- -- 94
2021-01-18 10:00:00 -2.7 0 Calma 2 Sudeste 0 -- -- 94
2021-01-18 09:00:00 -5.2 0 Calma 3 Este 0 -- -- 95
2021-01-18 08:00:00 -6 0 Calma 3 Sudeste 0 -- -- 95
2021-01-18 07:00:00 -5.4 2 Sudeste 3 Sudeste 0 -- -- 95
2021-01-18 06:00:00 -4.6 0 Calma 2 Sudeste 0 -- -- 94
2021-01-18 05:00:00 -3.4 0 Calma 4 Sudeste 0 -- -- 93
2021-01-18 04:00:00 -2.1 2 Este 2 Este 0 -- -- 91
2021-01-18 03:00:00 -0.4 2 Oeste 6 Sudoeste 0 -- -- 88
2021-01-18 02:00:00 -0.9 0 Calma 3 Sudeste 0 -- -- 87
2021-01-18 01:00:00 -0.3 0 Calma 5 Este 0 -- -- 84
2021-01-18 00:00:00 0.9 0 Calma 5 Este 0 -- -- 79
2021-01-17 23:00:00 1.1 3 Noroeste 12 Oeste 0 -- -- 75
2021-01-17 22:00:00 1.1 7 Oeste 14 Oeste 0 -- -- 74
2021-01-17 21:00:00 0.2 6 Oeste 14 Oeste 0 -- -- 73
2021-01-17 20:00:00 1.8 6 Oeste 10 Oeste 0 -- -- 67
2021-01-17 19:00:00 3 6 Oeste 15 Noroeste 0 -- -- 56
2021-01-17 18:00:00 4.2 6 Sudoeste 14 Oeste 0 -- -- 51
2021-01-17 17:00:00 7.6 8 Oeste 18 Oeste 0 -- -- 41
2021-01-17 16:00:00 7 16 Oeste 30 Oeste 0 -- -- 42
2021-01-17 15:00:00 7.3 14 Oeste 23 Noroeste 0 -- -- 41
2021-01-17 14:00:00 6.4 19 Oeste 25 Oeste 0 -- -- 44
2021-01-17 13:00:00 6.3 17 Oeste 24 Noroeste 0 -- -- 42
2021-01-17 12:00:00 5.1 9 Sudoeste 13 Oeste 0 -- -- 54
2021-01-17 11:00:00 1.7 0 Calma 4 Sudeste 0 -- -- 77
2021-01-17 10:00:00 -2.9 0 Calma 2 Este 0 -- -- 92
2021-01-17 09:00:00 -8.3 0 Calma 2 Sudeste 0 -- -- 94
2021-01-17 08:00:00 -8.8 0 Calma 2 Sudoeste 0 -- -- 94
2021-01-17 07:00:00 -8.7 0 Calma 0 Calma 0 -- -- 94
2021-01-17 06:00:00 -8.7 0 Calma 2 Sudeste 0 -- -- 94
2021-01-17 05:00:00 -8 0 Calma 4 Sudoeste 0 -- -- 95
2021-01-17 04:00:00 -6.9 0 Calma 2 Sudeste 0 -- -- 95
2021-01-17 03:00:00 -7.1 0 Calma 2 Sudeste 0 -- -- 95
2021-01-17 02:00:00 -6.6 0 Calma 5 Oeste 0 -- -- 96
2021-01-17 01:00:00 -5.3 0 Calma 5 Sudoeste 0 -- -- 98
2021-01-17 00:00:00 -4.9 0 Calma 5 Oeste 0 -- -- 97
2021-01-16 23:00:00 -4.3 0 Calma 4 Sudeste 0 -- -- 96
2021-01-16 22:00:00 -3 0 Calma 5 Oeste 0 -- -- 96
2021-01-16 21:00:00 -3.1 2 Noroeste 8 Oeste 0 -- -- 97
2021-01-16 20:00:00 -2.8 3 Oeste 7 Oeste 0 -- -- 89
2021-01-16 19:00:00 -0.1 7 Oeste 16 Oeste 0 -- -- 84
2021-01-16 18:00:00 1.2 5 Sudoeste 18 Oeste 0 -- -- 78
2021-01-16 17:00:00 3.5 17 Oeste 23 Oeste 0 -- -- 73
2021-01-16 16:00:00 4.1 15 Oeste 24 Oeste 0 -- -- 73
2021-01-16 15:00:00 3.7 13 Oeste 22 Oeste 0 -- -- 77
2021-01-16 14:00:00 2.5 14 Oeste 18 Oeste 0 -- -- 91
2021-01-16 13:00:00 0.5 14 Sudoeste 17 Oeste 0 -- -- 93
2021-01-16 12:00:00 -1.2 10 Oeste 17 Oeste 0 -- -- 96
2021-01-16 11:00:00 -1.8 7 Oeste 12 Oeste 0 -- -- 97
2021-01-16 10:00:00 -2.3 5 Oeste 13 Oeste 0 -- -- 97
2021-01-16 09:00:00 -2.4 6 Oeste 15 Oeste 0 -- -- 98
2021-01-16 08:00:00 -2.5 8 Oeste 13 Oeste 0 -- -- 98
2021-01-16 07:00:00 -2.8 6 Oeste 10 Oeste 0 -- -- 97
2021-01-16 06:00:00 -2.9 6 Noroeste 15 Noroeste 0 -- -- 97
2021-01-16 05:00:00 -2.8 8 Noroeste 15 Noroeste 0 -- -- 97
2021-01-16 04:00:00 -2.4 11 Oeste 20 Noroeste 0 -- -- 97
2021-01-16 03:00:00 -2.1 14 Oeste 22 Oeste 0 -- -- 97
2021-01-16 02:00:00 -2.1 15 Oeste 23 Oeste 0 -- -- 97
2021-01-16 01:00:00 -2.2 13 Oeste 18 Oeste 0 -- -- 96
2021-01-16 00:00:00 -2.6 16 Oeste 18 Oeste 0 -- -- 96
2021-01-15 23:00:00 -1.6 11 Oeste 17 Oeste 0 -- -- 95
2021-01-15 22:00:00 -1.5 8 Oeste 12 Oeste 0 -- -- 93
2021-01-15 21:00:00 -0.5 2 Sudoeste 27 Oeste 0 -- -- 92
2021-01-15 20:00:00 0.8 24 Oeste 35 Oeste 0 -- -- 90
2021-01-15 19:00:00 1.6 25 Oeste 32 Oeste 0 -- -- 87
2021-01-15 18:00:00 2.8 23 Oeste 36 Oeste 0 -- -- 83
2021-01-15 17:00:00 4.3 23 Oeste 38 Oeste 0 -- -- 76
2021-01-15 16:00:00 4.2 31 Oeste 39 Oeste 0 -- -- 76
2021-01-15 15:00:00 4 28 Oeste 38 Oeste 0 -- -- 77
2021-01-15 14:00:00 3.6 27 Oeste 35 Oeste 0 -- -- 78
2021-01-15 13:00:00 2.6 22 Oeste 29 Oeste 0 -- -- 86
2021-01-15 12:00:00 0.1 16 Oeste 31 Oeste 0 -- -- 96
2021-01-15 11:00:00 -1.1 24 Oeste 32 Oeste 0 -- -- 95
2021-01-15 10:00:00 -1.6 13 Oeste 26 Oeste 0 -- -- 95
2021-01-15 09:00:00 -2.7 15 Oeste 26 Oeste 0 -- -- 97
2021-01-15 08:00:00 -3.4 11 Oeste 21 Oeste 0 -- -- 99
2021-01-15 07:00:00 -2.9 18 Oeste 23 Oeste 0 -- -- 98
2021-01-15 06:00:00 -1.9 16 Oeste 26 Oeste 0 -- -- 98
2021-01-15 05:00:00 -0.7 17 Oeste 32 Oeste 0 -- -- 98
2021-01-15 04:00:00 0 24 Oeste 37 Oeste 0 -- -- 98
2021-01-15 03:00:00 0.1 24 Oeste 39 Oeste 0 -- -- 98
2021-01-15 02:00:00 0.1 30 Oeste 37 Oeste 0 -- -- 96
2021-01-15 01:00:00 0.4 28 Oeste 33 Oeste 0 -- -- 97
2021-01-15 00:00:00 -0.3 23 Oeste 31 Oeste 0 -- -- 96
2021-01-14 23:00:00 -0.4 22 Oeste 29 Oeste 0 -- -- 97
2021-01-14 22:00:00 0 19 Oeste 27 Oeste 0 -- -- 96
2021-01-14 21:00:00 -1.1 2 Sudoeste 10 Sudoeste 0 -- -- 96
2021-01-14 20:00:00 -1.1 6 Sur 15 Oeste 0 -- -- 94
2021-01-14 19:00:00 -0.5 10 Oeste 15 Oeste 0 -- -- 91
2021-01-14 18:00:00 0.5 2 Sudoeste 10 Sudoeste 0 -- -- 86
2021-01-14 17:00:00 3.8 3 Sudoeste 21 Oeste 0 -- -- 71
2021-01-14 16:00:00 3.2 11 Oeste 24 Oeste 0 -- -- 89
2021-01-14 15:00:00 2.2 9 Oeste 16 Oeste 0 -- -- 90
2021-01-14 14:00:00 0 7 Oeste 13 Oeste 0 -- -- 92
2021-01-14 13:00:00 -2.3 7 Oeste 17 Oeste 0 -- -- 95
2021-01-14 12:00:00 -2.4 8 Oeste 12 Oeste 0 -- -- 96
2021-01-14 11:00:00 -2.7 8 Oeste 13 Oeste 0 -- -- 96
2021-01-14 10:00:00 -3.4 2 Oeste 7 Oeste 0 -- -- 96
2021-01-14 09:00:00 -3.2 4 Oeste 8 Oeste 0 -- -- 97
2021-01-14 08:00:00 -3.1 2 Oeste 7 Oeste 0 -- -- 97
2021-01-14 07:00:00 -3.6 6 Oeste 9 Oeste 0 -- -- 97
2021-01-14 06:00:00 -3.3 7 Oeste 16 Oeste 0 -- -- 96
2021-01-14 05:00:00 -3.3 10 Oeste 19 Oeste 0 -- -- 96
2021-01-14 04:00:00 -3.4 7 Oeste 12 Oeste 0 -- -- 96
2021-01-14 03:00:00 -6.1 0 Calma 3 Oeste 0 -- -- 97
2021-01-14 02:00:00 -8.6 0 Calma 3 Sudeste 0 -- -- 93
2021-01-14 01:00:00 -7.8 0 Calma 7 Oeste 0 -- -- 94
2021-01-14 00:00:00 -7.1 -- -- -- -- 0 -- -- 94
2021-01-13 23:00:00 -5.1 0 Calma 2 Noroeste 0 -- -- 96
2021-01-13 22:00:00 -3.9 0 Calma 14 Oeste 0 -- -- 94
2021-01-13 21:00:00 -1.6 9 Oeste 15 Oeste 0 -- -- 91
2021-01-13 20:00:00 -0.8 8 Oeste 21 Oeste 0 -- -- 88
2021-01-13 19:00:00 -0.2 13 Oeste 17 Oeste 0 -- -- 84
2021-01-13 18:00:00 1.3 6 Oeste 22 Oeste 0 -- -- 78
2021-01-13 17:00:00 4.1 12 Oeste 34 Oeste 0 -- -- 67
2021-01-13 16:00:00 3.5 24 Oeste 34 Oeste 0 -- -- 70
2021-01-13 15:00:00 3.9 17 Oeste 27 Oeste 0 -- -- 70
2021-01-13 14:00:00 2.2 14 Noroeste 23 Noroeste 0 -- -- 80
2021-01-13 13:00:00 0.4 12 Oeste 20 Noroeste 0 -- -- 90
2021-01-13 12:00:00 -2 4 Norte 10 Norte 0.2 -- -- 95
2021-01-13 11:00:00 -2.4 0 Calma 0 Calma 0 -- -- 94
2021-01-13 10:00:00 -4.2 0 Calma 4 Oeste 0 -- -- 94
2021-01-13 09:00:00 -5.8 0 Calma 4 Este 0 -- -- 95
2021-01-13 08:00:00 -6.9 2 Este 12 Noroeste 0 -- -- 95
2021-01-13 07:00:00 -7.2 0 Calma 3 Sudoeste 0 -- -- 95
2021-01-13 06:00:00 -8.7 0 Calma 4 Sudeste 0 -- -- 92
2021-01-13 05:00:00 -9.4 2 Este 5 Oeste 0 -- -- 93
2021-01-13 04:00:00 -7.9 2 Sudeste 10 Oeste 0 -- -- 94
2021-01-13 03:00:00 -7.1 0 Calma 17 Oeste 0 -- -- 95
2021-01-13 02:00:00 -5.5 9 Oeste 17 Oeste 0 -- -- 95
2021-01-13 01:00:00 -5.7 6 Oeste 12 Oeste 0 -- -- 95
2021-01-13 00:00:00 -5.6 3 Sudoeste 14 Oeste 0 -- -- 95
2021-01-12 23:00:00 -5.2 5 Oeste 13 Noroeste 0 -- -- 92
2021-01-12 22:00:00 -3.6 13 Oeste 21 Oeste 0 -- -- 93
2021-01-12 21:00:00 -3.6 11 Oeste 22 Oeste 0 -- -- 89
2021-01-12 20:00:00 -3.6 17 Oeste 22 Oeste 0 -- -- 90
2021-01-12 19:00:00 -2.5 10 Oeste 24 Oeste 0 -- -- 86
2021-01-12 18:00:00 -1.2 15 Oeste 26 Oeste 0 -- -- 82
2021-01-12 17:00:00 0.4 17 Oeste 22 Oeste 0 -- -- 76
2021-01-12 16:00:00 0.5 16 Oeste 25 Oeste 0 -- -- 75
2021-01-12 15:00:00 0.1 16 Oeste 28 Oeste 0 -- -- 76
2021-01-12 14:00:00 -1 15 Oeste 22 Oeste 0 -- -- 79
2021-01-12 13:00:00 -1.9 12 Oeste 22 Oeste 0 -- -- 82
2021-01-12 12:00:00 -3.2 14 Noroeste 20 Noroeste 0 -- -- 86
2021-01-12 11:00:00 -3.6 6 Este 10 Este 0 -- -- 86
2021-01-12 10:00:00 -8.3 0 Calma 8 Oeste 0 -- -- 90
2021-01-12 09:00:00 -9.8 2 Noroeste 5 Noroeste 0 -- -- 93
2021-01-12 08:00:00 -11.7 0 Calma 3 Sudoeste 0 -- -- 91
2021-01-12 07:00:00 -13.7 0 Calma 2 Oeste 0 -- -- 89
2021-01-12 06:00:00 -13.6 0 Calma 4 Sudeste 0 -- -- 87
2021-01-12 05:00:00 -14.7 0 Calma 2 Este 0 -- -- 89
2021-01-12 04:00:00 -14.3 0 Calma 3 Sudeste 0 -- -- 90
2021-01-12 03:00:00 -14.3 0 Calma 3 Sudeste 0 -- -- 89
2021-01-12 02:00:00 -13.4 0 Calma 2 Sudeste 0 -- -- 90
2021-01-12 01:00:00 -12.8 0 Calma 4 Sudeste 0 -- -- 91
2021-01-12 00:00:00 -12.4 0 Calma 6 Sudeste 0 -- -- 91
2021-01-11 23:00:00 -9.2 3 Oeste 12 Oeste 0 -- -- 92
2021-01-11 22:00:00 -7.7 6 Oeste 15 Oeste 0 -- -- 90
2021-01-11 21:00:00 -6.6 9 Oeste 16 Oeste 0 -- -- 85
2021-01-11 20:00:00 -4.2 11 Oeste 22 Oeste 0 -- -- 80
2021-01-11 19:00:00 -2.7 15 Oeste 26 Oeste 0 -- -- 75
2021-01-11 18:00:00 -0.8 18 Oeste 27 Sudoeste 0 -- -- 70
2021-01-11 17:00:00 0.9 21 Sudoeste 33 Oeste 0 -- -- 65
2021-01-11 16:00:00 2.6 22 Oeste 30 Oeste 0 -- -- 59
2021-01-11 15:00:00 1.5 23 Oeste 33 Oeste 0 -- -- 66
2021-01-11 14:00:00 0.8 23 Sudoeste 33 Sudoeste 0 -- -- 67
2021-01-11 13:00:00 -0.7 26 Sudoeste 33 Sudoeste 0 -- -- 71
2021-01-11 12:00:00 -1.1 16 Oeste 26 Oeste 0 -- -- 71
2021-01-11 11:00:00 -2.6 19 Oeste 27 Oeste 0 -- -- 76
2021-01-11 10:00:00 -5.9 18 Oeste 22 Oeste 0 -- -- 87
2021-01-11 09:00:00 -10.5 8 Oeste 13 Oeste 0 -- -- 92
2021-01-11 08:00:00 -17.2 0 Calma 7 Oeste 0 -- -- 87
2021-01-11 07:00:00 -17.4 0 Calma 3 Sudeste 0 -- -- 87
2021-01-11 06:00:00 -17.5 0 Calma 3 Sudeste 0 -- -- 86
2021-01-11 05:00:00 -15.4 0 Calma 12 Oeste 0 -- -- 84
2021-01-11 04:00:00 -14.6 0 Calma 13 Oeste 0 -- -- 89
2021-01-11 03:00:00 -12.3 0 Calma 14 Oeste 0 -- -- 91
2021-01-11 02:00:00 -9.3 10 Oeste 15 Oeste 0 -- -- 88
2021-01-11 01:00:00 -8.6 8 Oeste 13 Oeste 0 -- -- 91
2021-01-11 00:00:00 -7.1 9 Oeste 14 Oeste 0 -- -- 87
2021-01-10 23:00:00 -6 13 Oeste 15 Oeste 0 -- -- 86
2021-01-10 22:00:00 -5.4 10 Oeste 14 Oeste 0 -- -- 85
2021-01-10 21:00:00 -4.4 10 Oeste 13 Oeste 0 -- -- 88
2021-01-10 20:00:00 -1.9 7 Oeste 12 Norte 0 -- -- 80
2021-01-10 19:00:00 -0.9 8 Norte 15 Norte 0 -- -- 76
2021-01-10 18:00:00 -0.2 6 Norte 13 Norte 0 -- -- 79
2021-01-10 17:00:00 0.4 5 Noroeste 16 Oeste 0 -- -- 81
2021-01-10 16:00:00 0.5 11 Oeste 15 Oeste 0 -- -- 76
2021-01-10 15:00:00 1.9 7 Sudoeste 12 Oeste 0 -- -- 71
2021-01-10 14:00:00 1 9 Sudoeste 11 Sudoeste 0 -- -- 73
2021-01-10 13:00:00 9 0 Calma 4 Oeste 0.6 -- -- 70
2021-01-10 12:00:00 -1.8 2 Sur 3 Sudoeste 0.6 -- -- 88
2021-01-10 11:00:00 -3.5 0 Calma 2 Nordeste 0 -- -- 93
2021-01-10 10:00:00 -5.4 0 Calma 3 Oeste 0 -- -- 94
2021-01-10 09:00:00 -7 0 Calma 5 Oeste 0 -- -- 94
2021-01-10 08:00:00 -6.4 3 Oeste 5 Oeste 0 -- -- 95
2021-01-10 07:00:00 -3.8 0 Calma 4 Sudoeste 0 -- -- 95
2021-01-10 06:00:00 -2.8 0 Calma 5 Noroeste 0 -- -- 97
2021-01-10 05:00:00 -2.8 0 Calma 2 Sudoeste 0 -- -- 97
2021-01-10 04:00:00 -3 3 Sur 4 Noroeste 0 -- -- 96
2021-01-10 03:00:00 -3.2 5 Noroeste 5 Oeste 0 -- -- 96
2021-01-10 02:00:00 -3 0 Calma 5 Este 0 -- -- 96
2021-01-10 01:00:00 -2.5 2 Este 6 Este 0 -- -- 96
2021-01-10 00:00:00 -2.3 0 Calma 10 Este 0 -- -- 94
2021-01-09 23:00:00 -2.5 3 Este 9 Este 0 -- -- 94
2021-01-09 22:00:00 -2 5 Este 13 Este 0 -- -- 92
2021-01-09 21:00:00 -1.9 8 Este 24 Este 0 -- -- 91
2021-01-09 20:00:00 -1.8 18 Este 30 Este 0 -- -- 91
2021-01-09 19:00:00 -1.6 22 Este 31 Este 0 -- -- 91
2021-01-09 18:00:00 -1.5 20 Este 35 Este 0 -- -- 90
2021-01-09 17:00:00 -1.1 17 Este 37 Este 0 -- -- 89
2021-01-09 16:00:00 -1 28 Este 40 Este 0 -- -- 86
2021-01-09 15:00:00 -1 23 Este 35 Este 0.4 -- -- 86
2021-01-09 14:00:00 -0.8 17 Este 31 Este 0.4 -- -- 85
2021-01-09 13:00:00 -0.8 23 Este 35 Este 0 -- -- 84
2021-01-09 12:00:00 -1.2 18 Este 30 Este 0 -- -- 89
2021-01-09 11:00:00 -1.8 15 Este 24 Este 0 -- -- 93
2021-01-09 10:00:00 -2.4 17 Este 32 Este 0 -- -- 94
2021-01-09 09:00:00 -2.4 23 Este 36 Nordeste 0 -- -- 94
2021-01-09 08:00:00 -2.3 21 Este 35 Este 0 -- -- 93
2021-01-09 07:00:00 -2.6 17 Este 30 Este 0 -- -- 94
2021-01-09 06:00:00 -2.7 22 Este 32 Este 0 -- -- 92
2021-01-09 05:00:00 -2.8 21 Este 35 Este 0 -- -- 92
2021-01-09 04:00:00 -2.7 21 Este 33 Este 0 -- -- 91
2021-01-09 03:00:00 -2.7 19 Este 35 Este 0 -- -- 91
2021-01-09 02:00:00 -2.8 18 Este 35 Este 0 -- -- 92
2021-01-09 01:00:00 -2.9 17 Este 28 Este 0 -- -- 93
2021-01-09 00:00:00 -3 16 Este 25 Este 0 -- -- 93
2021-01-08 23:00:00 -2.9 17 Este 28 Este 0 -- -- 92
2021-01-08 22:00:00 -2.6 15 Este 21 Este 0 -- -- 94
2021-01-08 21:00:00 -2.3 9 Este 14 Este 0 -- -- 93
2021-01-08 20:00:00 -2.4 12 Este 23 Este 0 -- -- 91
2021-01-08 19:00:00 -2.1 15 Este 22 Este 0 -- -- 88
2021-01-08 18:00:00 -1.6 15 Este 22 Este 0 -- -- 80
2021-01-08 17:00:00 -1.3 18 Este 27 Este 0 -- -- 77
2021-01-08 16:00:00 -0.9 13 Sudeste 20 Este 0 -- -- 80
2021-01-08 15:00:00 -0.7 13 Sudeste 18 Este 0 -- -- 75
2021-01-08 14:00:00 -2 10 Este 13 Este 0 -- -- 83
2021-01-08 13:00:00 -2.8 4 Este 10 Este 0 -- -- 84
2021-01-08 12:00:00 -4.1 7 Este 12 Este 0 -- -- 85
2021-01-08 11:00:00 -6.7 2 Este 5 Este 0 -- -- 87
2021-01-08 10:00:00 -9.4 0 Calma 3 Este 0 -- -- 89
2021-01-08 09:00:00 -11.1 2 Este 3 Este 0 -- -- 90
2021-01-08 08:00:00 -11.3 0 Calma 6 Nordeste 0 -- -- 90
2021-01-08 07:00:00 -11.4 4 Nordeste 7 Nordeste 0 -- -- 91
2021-01-08 06:00:00 -11.5 2 Nordeste 4 Este 0 -- -- 91
2021-01-08 05:00:00 -11.1 3 Este 4 Este 0 -- -- 92
2021-01-08 04:00:00 -10.7 0 Calma -- -- 0 -- -- 92
2021-01-08 03:00:00 -10.4 0 Calma 5 Este 0 -- -- 92
2021-01-08 02:00:00 -9.8 3 Este 5 Este 0 -- -- 92
2021-01-08 01:00:00 -9.2 2 Este 6 Nordeste 0 -- -- 93
2021-01-08 00:00:00 -8.4 3 Nordeste 5 Este 0 -- -- 92
2021-01-07 23:00:00 -7.4 0 Calma 5 Nordeste 0 -- -- 92
2021-01-07 22:00:00 -6.3 6 Nordeste 9 Nordeste 0 -- -- 90
2021-01-07 21:00:00 -5.2 0 Calma 3 Este 0 -- -- 89
2021-01-07 20:00:00 -3.5 2 Este 3 Nordeste 0 -- -- 82
2021-01-07 19:00:00 -2.5 0 Calma 5 Sudeste 0 -- -- 78
2021-01-07 18:00:00 -0.9 4 Sur 9 Sudeste 0 -- -- 72
2021-01-07 17:00:00 1.9 6 Sudeste 14 Sudeste 0 -- -- 59
2021-01-07 16:00:00 2.4 10 Sudeste 19 Este 0 -- -- 56
2021-01-07 15:00:00 2.6 12 Sudeste 19 Este 0 -- -- 55
2021-01-07 14:00:00 -0.3 10 Sudeste 13 Sudeste 0 -- -- 69
2021-01-07 13:00:00 -0.9 10 Este 16 Este 0 -- -- 75
2021-01-07 12:00:00 -1.9 4 Este 11 Este 0 -- -- 84
2021-01-07 11:00:00 -3.5 6 Este 9 Este 0 -- -- 87
2021-01-07 10:00:00 -5.2 0 Calma 4 Sudeste 0 -- -- 92
2021-01-07 09:00:00 -6.8 0 Calma 4 Sudeste 0 -- -- 92
2021-01-07 08:00:00 -6.9 2 Este 5 Nordeste 0 -- -- 91
2021-01-07 07:00:00 -6.3 0 Calma 7 Nordeste 0 -- -- 90
2021-01-07 06:00:00 -6 5 Nordeste 7 Nordeste 0 -- -- 90
2021-01-07 05:00:00 -6.4 2 Este 7 Nordeste 0 -- -- 90
2021-01-07 04:00:00 -6.6 3 Este 10 Este 0 -- -- 91
2021-01-07 03:00:00 -7 0 Calma 6 Nordeste 0 -- -- 90
2021-01-07 02:00:00 -6.4 3 Nordeste 6 Este 0 -- -- 91
2021-01-07 01:00:00 -6.1 2 Sudeste 6 Este 0 -- -- 92
2021-01-07 00:00:00 -6.3 3 Este 4 Este 0 -- -- 92
2021-01-06 23:00:00 -5.6 0 Calma 4 Este 0 -- -- 90
2021-01-06 22:00:00 -5 3 Este 4 Este 0 -- -- 90
2021-01-06 21:00:00 -4.5 3 Nordeste 8 Nordeste 0 -- -- 87
2021-01-06 20:00:00 -3 2 Este 8 Nordeste 0 -- -- 82
2021-01-06 19:00:00 -1.2 0 Calma 6 Norte 0 -- -- 71
2021-01-06 18:00:00 0.1 5 Norte 8 Norte 0 -- -- 67
2021-01-06 17:00:00 4 4 Noroeste 9 Noroeste 0 -- -- 52
2021-01-06 16:00:00 4.5 5 Noroeste 12 Noroeste 0 -- -- 49
2021-01-06 15:00:00 5.3 3 Oeste 10 Sur 0 -- -- 52
2021-01-06 14:00:00 4.4 3 Este 9 Sudeste 0 -- -- 55
2021-01-06 13:00:00 3.8 2 Nordeste 6 Nordeste 0 -- -- 62
2021-01-06 12:00:00 2.5 0 Calma 2 Sudeste 0 -- -- 66
2021-01-06 11:00:00 -0.2 0 Calma 4 Este 0 -- -- 72
2021-01-06 10:00:00 -5.6 2 Este 5 Este 0 -- -- 85
2021-01-06 09:00:00 -9.3 2 Sudeste 4 Este 0 -- -- 92
2021-01-06 08:00:00 -9.5 0 Calma 4 Nordeste 0 -- -- 92
2021-01-06 07:00:00 -9.1 3 Nordeste 5 Sudeste 0 -- -- 93
2021-01-06 06:00:00 -9.1 2 Nordeste 5 Nordeste 0 -- -- 93
2021-01-06 05:00:00 -8.8 2 Nordeste 4 Nordeste 0 -- -- 93
2021-01-06 04:00:00 -8 2 Nordeste -- -- 0 -- -- 94
2021-01-06 03:00:00 -7.4 0 Calma 2 Sudeste 0 -- -- 94
2021-01-06 02:00:00 -7.2 0 Calma 3 Sudeste 0 -- -- 95
2021-01-06 01:00:00 -6.4 2 Sudeste 3 Sudeste 0 -- -- 94
2021-01-06 00:00:00 -5.5 0 Calma 4 Sudeste 0 -- -- 93
2021-01-05 23:00:00 -4.2 0 Calma 0 Calma 0 -- -- 94
2021-01-05 22:00:00 -4.4 0 Calma 0 Calma 0 -- -- 92
2021-01-05 21:00:00 -3.7 0 Calma 2 Sudeste 0 -- -- 90
2021-01-05 20:00:00 -2.2 2 Sudeste 9 Noroeste 0 -- -- 87
2021-01-05 19:00:00 -1.6 0 Calma 8 Noroeste 0 -- -- 85
2021-01-05 18:00:00 -0.5 5 Noroeste 13 Noroeste 0 -- -- 78
2021-01-05 17:00:00 2.3 9 Noroeste 18 Noroeste 0 -- -- 66
2021-01-05 16:00:00 2 10 Noroeste 21 Noroeste 0.2 -- -- 70
2021-01-05 15:00:00 2.2 10 Oeste 19 Oeste 0 -- -- 70
2021-01-05 14:00:00 0.7 10 Oeste 17 Oeste 0.4 -- -- 77
2021-01-05 13:00:00 -1.9 10 Noroeste 21 Oeste 0.2 -- -- 87
2021-01-05 12:00:00 -2.1 13 Oeste 17 Oeste 0 -- -- 90
2021-01-05 11:00:00 -3.1 12 Noroeste 21 Oeste 0 -- -- 94
2021-01-05 10:00:00 -3.3 13 Oeste 21 Oeste 0 -- -- 95
2021-01-05 09:00:00 -3 11 Oeste 21 Oeste 0 -- -- 95
2021-01-05 08:00:00 -2.8 10 Oeste 15 Noroeste 0 -- -- 96
2021-01-05 07:00:00 -3.6 0 Calma 14 Oeste 0 -- -- 96
2021-01-05 06:00:00 -3.8 4 Noroeste 10 Oeste 0 -- -- 98
2021-01-05 05:00:00 -5.7 3 Noroeste 13 Noroeste 0 -- -- 99
2021-01-05 04:00:00 -5.1 8 Oeste 13 Oeste 0 -- -- 96
2021-01-05 03:00:00 -5.7 0 Calma 13 Oeste 0 -- -- 96
2021-01-05 02:00:00 -4.8 12 Oeste 14 Oeste 0 -- -- 95
2021-01-05 01:00:00 -4.1 9 Oeste 15 Oeste 0 -- -- 97
2021-01-05 00:00:00 -3.4 14 Oeste 18 Oeste 0 -- -- 96
2021-01-04 23:00:00 -3 14 Oeste 17 Oeste 0 -- -- 97
2021-01-04 22:00:00 -2.5 12 Oeste 15 Oeste 0 -- -- 97
2021-01-04 21:00:00 -1.3 11 Oeste 14 Oeste 0 -- -- 96
2021-01-04 20:00:00 -1.4 9 Oeste 14 Noroeste 0 -- -- 96
2021-01-04 19:00:00 -1.4 9 Oeste 33 Noroeste 0 -- -- 94
2021-01-04 18:00:00 0.6 15 Oeste 23 Oeste 0 -- -- 79
2021-01-04 17:00:00 1.4 16 Oeste 36 Oeste 0 -- -- 72
2021-01-04 16:00:00 0.9 26 Oeste 36 Oeste 0 -- -- 74
2021-01-04 15:00:00 0.5 26 Oeste 37 Oeste 0 -- -- 76
2021-01-04 14:00:00 0.8 19 Noroeste 37 Oeste 0 -- -- 76
2021-01-04 13:00:00 0 23 Noroeste 36 Oeste 0 -- -- 78
2021-01-04 12:00:00 -0.2 20 Oeste 35 Oeste 0 -- -- 81
2021-01-04 11:00:00 -0.7 26 Oeste 39 Oeste 0 -- -- 83
2021-01-04 10:00:00 -1.7 24 Oeste 36 Oeste 0 -- -- 87
2021-01-04 09:00:00 -1.6 19 Oeste 33 Oeste 0 -- -- 88
2021-01-04 08:00:00 -1.6 23 Oeste 35 Oeste 0 -- -- 87
2021-01-04 07:00:00 -1.5 17 Oeste 30 Oeste 0 -- -- 89
2021-01-04 06:00:00 -1.3 20 Oeste 30 Oeste 0 -- -- 89
2021-01-04 05:00:00 -1.3 14 Oeste 19 Oeste 0 -- -- 91
2021-01-04 04:00:00 -1.9 10 Sudoeste 19 Sudoeste 0 -- -- 92
2021-01-04 03:00:00 -1.6 8 Oeste 17 Oeste 0 -- -- 92
2021-01-04 02:00:00 -0.9 11 Oeste 22 Oeste 0 -- -- 91
2021-01-04 01:00:00 -0.3 14 Oeste 20 Oeste 0 -- -- 90
2021-01-04 00:00:00 -0.1 12 Oeste 21 Oeste 0 -- -- 94
2021-01-03 23:00:00 0 8 Oeste 29 Oeste 0 -- -- 91
2021-01-03 22:00:00 0 19 Oeste 38 Oeste 0 -- -- 91
2021-01-03 21:00:00 -0.4 21 Oeste 39 Oeste 0 -- -- 90
2021-01-03 20:00:00 -0.3 28 Oeste 41 Oeste 0 -- -- 86
2021-01-03 19:00:00 -0.5 32 Oeste 42 Oeste 0 -- -- 86
2021-01-03 18:00:00 0.4 16 Oeste 32 Oeste 0 -- -- 80
2021-01-03 17:00:00 1.6 22 Oeste 33 Oeste 0 -- -- 74
2021-01-03 16:00:00 1.7 18 Oeste 33 Oeste 0 -- -- 74
2021-01-03 15:00:00 1.1 21 Oeste 30 Oeste 0 -- -- 78
2021-01-03 14:00:00 0.8 22 Oeste 32 Oeste 0 -- -- 80
2021-01-03 13:00:00 0 22 Oeste 32 Oeste 0 -- -- 81
2021-01-03 12:00:00 -0.6 15 Oeste 29 Oeste 0 -- -- 85
2021-01-03 11:00:00 -2.1 12 Oeste 22 Oeste 0 -- -- 91
2021-01-03 10:00:00 -3.2 18 Oeste 25 Oeste 0 -- -- 92
2021-01-03 09:00:00 -4 9 Oeste 23 Oeste 0 -- -- 92
2021-01-03 08:00:00 -3.2 17 Oeste 33 Oeste 0 -- -- 89
2021-01-03 07:00:00 -2.5 14 Oeste 23 Oeste 0 -- -- 89
2021-01-03 06:00:00 -2.9 16 Oeste 23 Oeste 0 -- -- 90
2021-01-03 05:00:00 -2.4 17 Oeste 26 Oeste 0 -- -- 90
2021-01-03 04:00:00 -1.4 17 Oeste 27 Oeste 0 -- -- 89
2021-01-03 03:00:00 -1.6 20 Oeste 32 Oeste 0 -- -- 90
2021-01-03 02:00:00 -1.2 21 Oeste 31 Oeste 0 -- -- 87
2021-01-03 01:00:00 -1.4 19 Oeste 31 Oeste 0 -- -- 85
2021-01-03 00:00:00 -1.9 18 Oeste 27 Oeste 0 -- -- 85
2021-01-02 23:00:00 -2.3 15 Oeste 27 Oeste 0 -- -- 85
2021-01-02 22:00:00 -2.6 20 Oeste 28 Oeste 0 -- -- 86
2021-01-02 21:00:00 -2 17 Oeste 26 Oeste 0 -- -- 82
2021-01-02 20:00:00 -1.8 17 Oeste 25 Oeste 0 -- -- 78
2021-01-02 19:00:00 -0.8 15 Noroeste 30 Noroeste 0 -- -- 74
2021-01-02 18:00:00 -0.4 22 Noroeste 39 Noroeste 0 -- -- 67
2021-01-02 17:00:00 0.2 21 Noroeste 40 Noroeste 0 -- -- 69
2021-01-02 16:00:00 0.5 27 Noroeste 41 Noroeste 0 -- -- 69
2021-01-02 15:00:00 0.7 26 Noroeste 40 Noroeste 0 -- -- 70
2021-01-02 14:00:00 0.9 26 Noroeste -- -- -- -- -- 71